sensor_id;sensor_type;location;lat;lon;timestamp;P1;durP1;ratioP1;P2;durP2;ratioP2
2105;SDS011;1059;52.548;13.408;2023-03-11T00:00:39;23.03;;;16.40;;
2105;SDS011;1059;52.548;13.408;2023-03-11T00:03:08;23.03;;;15.67;;
2105;SDS011;1059;52.548;13.408;2023-03-11T00:05:37;24.20;;;15.93;;
2105;SDS011;1059;52.548;13.408;2023-03-11T00:08:06;27.20;;;16.90;;
2105;SDS011;1059;52.548;13.408;2023-03-11T00:10:35;27.23;;;16.43;;
2105;SDS011;1059;52.548;13.408;2023-03-11T00:13:04;24.30;;;15.57;;
2105;SDS011;1059;52.548;13.408;2023-03-11T00:15:33;28.83;;;17.33;;
2105;SDS011;1059;52.548;13.408;2023-03-11T00:18:00;24.47;;;17.03;;
2105;SDS011;1059;52.548;13.408;2023-03-11T00:20:28;25.03;;;15.37;;
2105;SDS011;1059;52.548;13.408;2023-03-11T00:22:56;23.83;;;15.03;;
2105;SDS011;1059;52.548;13.408;2023-03-11T00:25:26;21.40;;;14.97;;
2105;SDS011;1059;52.548;13.408;2023-03-11T00:27:59;21.77;;;13.77;;
2105;SDS011;1059;52.548;13.408;2023-03-11T00:30:27;20.77;;;13.93;;
2105;SDS011;1059;52.548;13.408;2023-03-11T00:32:54;19.10;;;12.67;;
2105;SDS011;1059;52.548;13.408;2023-03-11T00:35:23;16.90;;;12.30;;
2105;SDS011;1059;52.548;13.408;2023-03-11T00:37:52;17.37;;;12.87;;
2105;SDS011;1059;52.548;13.408;2023-03-11T00:40:21;18.53;;;12.23;;
2105;SDS011;1059;52.548;13.408;2023-03-11T00:42:51;18.07;;;13.10;;
2105;SDS011;1059;52.548;13.408;2023-03-11T00:45:19;18.13;;;12.30;;
2105;SDS011;1059;52.548;13.408;2023-03-11T00:47:46;18.03;;;13.07;;
2105;SDS011;1059;52.548;13.408;2023-03-11T00:50:15;18.90;;;12.87;;
2105;SDS011;1059;52.548;13.408;2023-03-11T00:52:43;18.50;;;13.63;;
2105;SDS011;1059;52.548;13.408;2023-03-11T00:55:11;20.43;;;13.27;;
2105;SDS011;1059;52.548;13.408;2023-03-11T00:57:40;18.13;;;14.10;;
2105;SDS011;1059;52.548;13.408;2023-03-11T01:00:13;25.63;;;18.40;;
2105;SDS011;1059;52.548;13.408;2023-03-11T01:02:41;33.83;;;21.23;;
2105;SDS011;1059;52.548;13.408;2023-03-11T01:05:08;35.40;;;22.60;;
2105;SDS011;1059;52.548;13.408;2023-03-11T01:07:35;21.77;;;15.50;;
2105;SDS011;1059;52.548;13.408;2023-03-11T01:10:03;26.23;;;18.17;;
2105;SDS011;1059;52.548;13.408;2023-03-11T01:12:31;24.83;;;16.20;;
2105;SDS011;1059;52.548;13.408;2023-03-11T01:14:58;23.53;;;16.13;;
2105;SDS011;1059;52.548;13.408;2023-03-11T01:17:27;25.90;;;16.60;;
2105;SDS011;1059;52.548;13.408;2023-03-11T01:19:53;24.30;;;16.73;;
2105;SDS011;1059;52.548;13.408;2023-03-11T01:22:20;24.70;;;17.63;;
2105;SDS011;1059;52.548;13.408;2023-03-11T01:24:47;26.77;;;17.87;;
2105;SDS011;1059;52.548;13.408;2023-03-11T01:27:14;29.20;;;17.30;;
2105;SDS011;1059;52.548;13.408;2023-03-11T01:29:41;24.53;;;16.30;;
2105;SDS011;1059;52.548;13.408;2023-03-11T01:32:08;23.67;;;15.70;;
2105;SDS011;1059;52.548;13.408;2023-03-11T01:34:37;18.93;;;13.30;;
2105;SDS011;1059;52.548;13.408;2023-03-11T01:37:04;18.77;;;13.67;;
2105;SDS011;1059;52.548;13.408;2023-03-11T01:39:31;18.60;;;12.90;;
2105;SDS011;1059;52.548;13.408;2023-03-11T01:41:57;20.67;;;12.70;;
2105;SDS011;1059;52.548;13.408;2023-03-11T01:44:24;12.23;;;9.70;;
2105;SDS011;1059;52.548;13.408;2023-03-11T01:49:56;12.67;;;8.73;;
2105;SDS011;1059;52.548;13.408;2023-03-11T01:52:23;12.03;;;8.67;;
2105;SDS011;1059;52.548;13.408;2023-03-11T01:54:50;10.40;;;7.60;;
2105;SDS011;1059;52.548;13.408;2023-03-11T01:57:17;9.90;;;7.07;;
2105;SDS011;1059;52.548;13.408;2023-03-11T01:59:46;10.20;;;6.67;;
2105;SDS011;1059;52.548;13.408;2023-03-11T02:02:16;6.00;;;5.13;;
2105;SDS011;1059;52.548;13.408;2023-03-11T02:04:46;6.53;;;5.10;;
2105;SDS011;1059;52.548;13.408;2023-03-11T02:07:16;5.80;;;5.03;;
2105;SDS011;1059;52.548;13.408;2023-03-11T02:09:43;5.70;;;4.30;;
2105;SDS011;1059;52.548;13.408;2023-03-11T02:12:10;5.00;;;4.00;;
2105;SDS011;1059;52.548;13.408;2023-03-11T02:14:41;4.50;;;3.87;;
2105;SDS011;1059;52.548;13.408;2023-03-11T02:17:10;3.47;;;3.10;;
2105;SDS011;1059;52.548;13.408;2023-03-11T02:19:40;4.73;;;3.37;;
2105;SDS011;1059;52.548;13.408;2023-03-11T02:22:20;3.93;;;3.53;;
2105;SDS011;1059;52.548;13.408;2023-03-11T02:24:49;3.57;;;3.03;;
2105;SDS011;1059;52.548;13.408;2023-03-11T02:27:23;3.23;;;2.93;;
2105;SDS011;1059;52.548;13.408;2023-03-11T02:29:53;3.80;;;3.30;;
2105;SDS011;1059;52.548;13.408;2023-03-11T02:32:21;3.30;;;3.00;;
2105;SDS011;1059;52.548;13.408;2023-03-11T02:34:49;4.43;;;3.33;;
2105;SDS011;1059;52.548;13.408;2023-03-11T02:37:16;3.83;;;3.53;;
2105;SDS011;1059;52.548;13.408;2023-03-11T02:39:44;3.30;;;2.90;;
2105;SDS011;1059;52.548;13.408;2023-03-11T02:42:14;4.13;;;3.73;;
2105;SDS011;1059;52.548;13.408;2023-03-11T02:44:46;4.20;;;3.40;;
2105;SDS011;1059;52.548;13.408;2023-03-11T02:47:25;4.27;;;3.57;;
2105;SDS011;1059;52.548;13.408;2023-03-11T02:49:53;5.43;;;3.20;;
2105;SDS011;1059;52.548;13.408;2023-03-11T02:52:21;4.40;;;3.53;;
2105;SDS011;1059;52.548;13.408;2023-03-11T02:54:48;3.83;;;3.40;;
2105;SDS011;1059;52.548;13.408;2023-03-11T02:57:15;3.77;;;3.20;;
2105;SDS011;1059;52.548;13.408;2023-03-11T02:59:42;4.70;;;4.00;;
2105;SDS011;1059;52.548;13.408;2023-03-11T03:02:10;3.73;;;3.40;;
2105;SDS011;1059;52.548;13.408;2023-03-11T03:04:38;4.27;;;3.87;;
2105;SDS011;1059;52.548;13.408;2023-03-11T03:07:05;4.30;;;3.80;;
2105;SDS011;1059;52.548;13.408;2023-03-11T03:09:31;4.10;;;3.70;;
2105;SDS011;1059;52.548;13.408;2023-03-11T03:11:59;5.80;;;4.50;;
2105;SDS011;1059;52.548;13.408;2023-03-11T03:14:26;5.50;;;3.90;;
2105;SDS011;1059;52.548;13.408;2023-03-11T03:16:53;5.63;;;5.07;;
2105;SDS011;1059;52.548;13.408;2023-03-11T03:19:21;4.97;;;4.40;;
2105;SDS011;1059;52.548;13.408;2023-03-11T03:21:48;6.37;;;5.47;;
2105;SDS011;1059;52.548;13.408;2023-03-11T03:24:15;5.90;;;4.70;;
2105;SDS011;1059;52.548;13.408;2023-03-11T03:26:42;5.40;;;4.80;;
2105;SDS011;1059;52.548;13.408;2023-03-11T03:29:09;5.40;;;4.77;;
2105;SDS011;1059;52.548;13.408;2023-03-11T03:31:38;6.23;;;5.20;;
2105;SDS011;1059;52.548;13.408;2023-03-11T03:34:05;5.93;;;4.90;;
2105;SDS011;1059;52.548;13.408;2023-03-11T03:36:33;6.67;;;4.90;;
2105;SDS011;1059;52.548;13.408;2023-03-11T03:39:00;7.20;;;5.17;;
2105;SDS011;1059;52.548;13.408;2023-03-11T03:41:27;6.30;;;5.10;;
2105;SDS011;1059;52.548;13.408;2023-03-11T03:43:54;5.77;;;4.73;;
2105;SDS011;1059;52.548;13.408;2023-03-11T03:46:21;5.10;;;4.43;;
2105;SDS011;1059;52.548;13.408;2023-03-11T03:48:48;6.13;;;4.70;;
2105;SDS011;1059;52.548;13.408;2023-03-11T03:51:15;6.77;;;4.90;;
2105;SDS011;1059;52.548;13.408;2023-03-11T03:53:44;7.43;;;5.87;;
2105;SDS011;1059;52.548;13.408;2023-03-11T03:56:12;8.37;;;5.73;;
2105;SDS011;1059;52.548;13.408;2023-03-11T03:58:40;6.43;;;5.47;;
2105;SDS011;1059;52.548;13.408;2023-03-11T04:01:07;7.50;;;5.77;;
2105;SDS011;1059;52.548;13.408;2023-03-11T04:03:36;11.00;;;6.50;;
2105;SDS011;1059;52.548;13.408;2023-03-11T04:06:07;10.07;;;6.70;;
2105;SDS011;1059;52.548;13.408;2023-03-11T04:08:35;9.43;;;6.63;;
2105;SDS011;1059;52.548;13.408;2023-03-11T04:11:04;9.90;;;6.90;;
2105;SDS011;1059;52.548;13.408;2023-03-11T04:13:30;10.77;;;7.37;;
2105;SDS011;1059;52.548;13.408;2023-03-11T04:15:58;11.40;;;7.47;;
2105;SDS011;1059;52.548;13.408;2023-03-11T04:18:25;9.83;;;6.53;;
2105;SDS011;1059;52.548;13.408;2023-03-11T04:20:51;8.13;;;6.20;;
2105;SDS011;1059;52.548;13.408;2023-03-11T04:23:18;9.93;;;6.87;;
2105;SDS011;1059;52.548;13.408;2023-03-11T04:25:45;10.70;;;7.00;;
2105;SDS011;1059;52.548;13.408;2023-03-11T04:28:13;9.57;;;7.20;;
2105;SDS011;1059;52.548;13.408;2023-03-11T04:30:40;10.43;;;7.20;;
2105;SDS011;1059;52.548;13.408;2023-03-11T04:33:07;9.20;;;6.83;;
2105;SDS011;1059;52.548;13.408;2023-03-11T04:35:36;9.50;;;7.00;;
2105;SDS011;1059;52.548;13.408;2023-03-11T04:38:03;12.03;;;6.80;;
2105;SDS011;1059;52.548;13.408;2023-03-11T04:40:30;7.23;;;5.67;;
2105;SDS011;1059;52.548;13.408;2023-03-11T04:42:57;8.20;;;6.80;;
2105;SDS011;1059;52.548;13.408;2023-03-11T04:45:25;8.47;;;7.00;;
2105;SDS011;1059;52.548;13.408;2023-03-11T04:47:52;7.57;;;5.80;;
2105;SDS011;1059;52.548;13.408;2023-03-11T04:50:19;7.77;;;6.07;;
2105;SDS011;1059;52.548;13.408;2023-03-11T04:52:46;7.53;;;5.70;;
2105;SDS011;1059;52.548;13.408;2023-03-11T04:55:13;8.27;;;5.83;;
2105;SDS011;1059;52.548;13.408;2023-03-11T04:57:40;11.80;;;6.10;;
2105;SDS011;1059;52.548;13.408;2023-03-11T05:00:09;8.97;;;6.20;;
2105;SDS011;1059;52.548;13.408;2023-03-11T05:02:39;7.27;;;5.10;;
2105;SDS011;1059;52.548;13.408;2023-03-11T05:05:06;8.50;;;5.77;;
2105;SDS011;1059;52.548;13.408;2023-03-11T05:07:34;7.37;;;5.47;;
2105;SDS011;1059;52.548;13.408;2023-03-11T05:10:02;8.00;;;6.33;;
2105;SDS011;1059;52.548;13.408;2023-03-11T05:12:30;8.30;;;6.27;;
2105;SDS011;1059;52.548;13.408;2023-03-11T05:14:56;8.37;;;6.20;;
2105;SDS011;1059;52.548;13.408;2023-03-11T05:17:23;8.00;;;5.70;;
2105;SDS011;1059;52.548;13.408;2023-03-11T05:19:52;8.97;;;6.30;;
2105;SDS011;1059;52.548;13.408;2023-03-11T05:22:18;7.17;;;5.50;;
2105;SDS011;1059;52.548;13.408;2023-03-11T05:24:46;7.37;;;5.93;;
2105;SDS011;1059;52.548;13.408;2023-03-11T05:27:13;7.50;;;5.33;;
2105;SDS011;1059;52.548;13.408;2023-03-11T05:29:42;7.27;;;5.80;;
2105;SDS011;1059;52.548;13.408;2023-03-11T05:32:09;7.00;;;5.43;;
2105;SDS011;1059;52.548;13.408;2023-03-11T05:34:36;6.60;;;5.57;;
2105;SDS011;1059;52.548;13.408;2023-03-11T05:37:04;13.10;;;7.43;;
2105;SDS011;1059;52.548;13.408;2023-03-11T05:39:31;6.43;;;5.30;;
2105;SDS011;1059;52.548;13.408;2023-03-11T05:41:58;10.20;;;7.13;;
2105;SDS011;1059;52.548;13.408;2023-03-11T05:44:25;8.30;;;5.77;;
2105;SDS011;1059;52.548;13.408;2023-03-11T05:46:52;8.50;;;6.40;;
2105;SDS011;1059;52.548;13.408;2023-03-11T05:49:19;8.63;;;6.10;;
2105;SDS011;1059;52.548;13.408;2023-03-11T05:51:46;8.10;;;6.23;;
2105;SDS011;1059;52.548;13.408;2023-03-11T05:54:14;7.83;;;5.80;;
2105;SDS011;1059;52.548;13.408;2023-03-11T05:56:42;13.23;;;6.47;;
2105;SDS011;1059;52.548;13.408;2023-03-11T05:59:10;8.13;;;6.37;;
2105;SDS011;1059;52.548;13.408;2023-03-11T06:01:37;8.07;;;6.10;;
2105;SDS011;1059;52.548;13.408;2023-03-11T06:04:04;9.37;;;6.63;;
2105;SDS011;1059;52.548;13.408;2023-03-11T06:06:32;9.47;;;6.70;;
2105;SDS011;1059;52.548;13.408;2023-03-11T06:08:58;7.30;;;5.87;;
2105;SDS011;1059;52.548;13.408;2023-03-11T06:11:27;8.10;;;6.10;;
2105;SDS011;1059;52.548;13.408;2023-03-11T06:13:55;8.27;;;6.20;;
2105;SDS011;1059;52.548;13.408;2023-03-11T06:16:23;8.10;;;6.30;;
2105;SDS011;1059;52.548;13.408;2023-03-11T06:18:50;8.53;;;5.80;;
2105;SDS011;1059;52.548;13.408;2023-03-11T06:21:17;11.27;;;6.60;;
2105;SDS011;1059;52.548;13.408;2023-03-11T06:23:45;12.20;;;6.93;;
2105;SDS011;1059;52.548;13.408;2023-03-11T06:26:13;9.97;;;7.00;;
2105;SDS011;1059;52.548;13.408;2023-03-11T06:28:43;9.77;;;7.33;;
2105;SDS011;1059;52.548;13.408;2023-03-11T06:31:11;10.60;;;7.40;;
2105;SDS011;1059;52.548;13.408;2023-03-11T06:33:39;11.57;;;8.17;;
2105;SDS011;1059;52.548;13.408;2023-03-11T06:36:06;13.17;;;8.00;;
2105;SDS011;1059;52.548;13.408;2023-03-11T06:38:34;10.70;;;8.40;;
2105;SDS011;1059;52.548;13.408;2023-03-11T06:41:01;13.37;;;8.20;;
2105;SDS011;1059;52.548;13.408;2023-03-11T06:43:30;11.43;;;7.47;;
2105;SDS011;1059;52.548;13.408;2023-03-11T06:45:58;11.97;;;7.43;;
2105;SDS011;1059;52.548;13.408;2023-03-11T06:48:26;12.90;;;8.53;;
2105;SDS011;1059;52.548;13.408;2023-03-11T06:50:53;11.97;;;8.40;;
2105;SDS011;1059;52.548;13.408;2023-03-11T06:53:24;11.67;;;8.33;;
2105;SDS011;1059;52.548;13.408;2023-03-11T06:55:58;10.87;;;7.60;;
2105;SDS011;1059;52.548;13.408;2023-03-11T06:58:26;9.23;;;7.67;;
2105;SDS011;1059;52.548;13.408;2023-03-11T07:00:54;12.37;;;7.83;;
2105;SDS011;1059;52.548;13.408;2023-03-11T07:03:27;10.60;;;8.03;;
2105;SDS011;1059;52.548;13.408;2023-03-11T07:05:53;10.70;;;7.90;;
2105;SDS011;1059;52.548;13.408;2023-03-11T07:08:20;10.10;;;8.20;;
2105;SDS011;1059;52.548;13.408;2023-03-11T07:10:58;12.40;;;8.27;;
2105;SDS011;1059;52.548;13.408;2023-03-11T07:13:25;12.33;;;7.93;;
2105;SDS011;1059;52.548;13.408;2023-03-11T07:15:59;11.10;;;6.73;;
2105;SDS011;1059;52.548;13.408;2023-03-11T07:18:27;9.80;;;7.83;;
2105;SDS011;1059;52.548;13.408;2023-03-11T07:20:54;11.50;;;7.60;;
2105;SDS011;1059;52.548;13.408;2023-03-11T07:23:21;11.43;;;8.60;;
2105;SDS011;1059;52.548;13.408;2023-03-11T07:25:48;13.33;;;8.43;;
2105;SDS011;1059;52.548;13.408;2023-03-11T07:28:15;9.20;;;7.43;;
2105;SDS011;1059;52.548;13.408;2023-03-11T07:30:42;10.10;;;7.50;;
2105;SDS011;1059;52.548;13.408;2023-03-11T07:33:12;9.83;;;7.33;;
2105;SDS011;1059;52.548;13.408;2023-03-11T07:35:38;10.97;;;7.50;;
2105;SDS011;1059;52.548;13.408;2023-03-11T07:38:06;12.30;;;7.43;;
2105;SDS011;1059;52.548;13.408;2023-03-11T07:40:33;10.03;;;7.13;;
2105;SDS011;1059;52.548;13.408;2023-03-11T07:43:00;12.47;;;7.77;;
2105;SDS011;1059;52.548;13.408;2023-03-11T07:45:27;10.43;;;7.90;;
2105;SDS011;1059;52.548;13.408;2023-03-11T07:47:54;14.10;;;8.20;;
2105;SDS011;1059;52.548;13.408;2023-03-11T07:50:22;10.80;;;7.83;;
2105;SDS011;1059;52.548;13.408;2023-03-11T07:52:49;13.80;;;7.60;;
2105;SDS011;1059;52.548;13.408;2023-03-11T07:55:16;12.40;;;7.97;;
2105;SDS011;1059;52.548;13.408;2023-03-11T07:57:42;10.07;;;7.10;;
2105;SDS011;1059;52.548;13.408;2023-03-11T08:00:13;15.17;;;9.20;;
2105;SDS011;1059;52.548;13.408;2023-03-11T08:02:41;9.60;;;7.73;;
2105;SDS011;1059;52.548;13.408;2023-03-11T08:05:08;9.23;;;6.60;;
2105;SDS011;1059;52.548;13.408;2023-03-11T08:07:37;10.57;;;7.53;;
2105;SDS011;1059;52.548;13.408;2023-03-11T08:10:04;11.37;;;7.87;;
2105;SDS011;1059;52.548;13.408;2023-03-11T08:12:31;12.10;;;8.13;;
2105;SDS011;1059;52.548;13.408;2023-03-11T08:14:58;10.83;;;7.10;;
2105;SDS011;1059;52.548;13.408;2023-03-11T08:17:26;8.90;;;7.10;;
2105;SDS011;1059;52.548;13.408;2023-03-11T08:19:53;8.70;;;7.80;;
2105;SDS011;1059;52.548;13.408;2023-03-11T08:22:20;10.47;;;8.07;;
2105;SDS011;1059;52.548;13.408;2023-03-11T08:24:50;9.80;;;7.20;;
2105;SDS011;1059;52.548;13.408;2023-03-11T08:27:17;10.87;;;8.20;;
2105;SDS011;1059;52.548;13.408;2023-03-11T08:29:45;11.07;;;7.40;;
2105;SDS011;1059;52.548;13.408;2023-03-11T08:32:11;11.90;;;7.10;;
2105;SDS011;1059;52.548;13.408;2023-03-11T08:34:38;10.20;;;7.47;;
2105;SDS011;1059;52.548;13.408;2023-03-11T08:37:05;9.80;;;6.70;;
2105;SDS011;1059;52.548;13.408;2023-03-11T08:39:32;10.30;;;6.90;;
2105;SDS011;1059;52.548;13.408;2023-03-11T08:42:00;8.83;;;7.20;;
2105;SDS011;1059;52.548;13.408;2023-03-11T08:44:28;9.70;;;6.87;;
2105;SDS011;1059;52.548;13.408;2023-03-11T08:46:54;11.20;;;6.90;;
2105;SDS011;1059;52.548;13.408;2023-03-11T08:49:21;7.60;;;6.73;;
2105;SDS011;1059;52.548;13.408;2023-03-11T08:51:48;8.13;;;6.50;;
2105;SDS011;1059;52.548;13.408;2023-03-11T08:54:15;8.23;;;7.43;;
2105;SDS011;1059;52.548;13.408;2023-03-11T08:56:42;10.00;;;7.00;;
2105;SDS011;1059;52.548;13.408;2023-03-11T08:59:10;8.20;;;6.93;;
2105;SDS011;1059;52.548;13.408;2023-03-11T09:01:37;8.80;;;6.80;;
2105;SDS011;1059;52.548;13.408;2023-03-11T09:04:04;8.40;;;6.63;;
2105;SDS011;1059;52.548;13.408;2023-03-11T09:06:31;8.53;;;6.93;;
2105;SDS011;1059;52.548;13.408;2023-03-11T09:08:57;6.90;;;6.20;;
2105;SDS011;1059;52.548;13.408;2023-03-11T09:11:24;6.73;;;6.00;;
2105;SDS011;1059;52.548;13.408;2023-03-11T09:13:51;6.90;;;5.33;;
2105;SDS011;1059;52.548;13.408;2023-03-11T09:16:20;7.50;;;5.77;;
2105;SDS011;1059;52.548;13.408;2023-03-11T09:18:48;11.43;;;7.10;;
2105;SDS011;1059;52.548;13.408;2023-03-11T09:21:15;10.83;;;6.77;;
2105;SDS011;1059;52.548;13.408;2023-03-11T09:23:42;7.67;;;5.30;;
2105;SDS011;1059;52.548;13.408;2023-03-11T09:26:09;6.40;;;5.67;;
2105;SDS011;1059;52.548;13.408;2023-03-11T09:28:36;6.97;;;6.27;;
2105;SDS011;1059;52.548;13.408;2023-03-11T09:31:03;8.33;;;5.90;;
2105;SDS011;1059;52.548;13.408;2023-03-11T09:33:32;8.67;;;7.63;;
2105;SDS011;1059;52.548;13.408;2023-03-11T09:36:02;11.37;;;6.10;;
2105;SDS011;1059;52.548;13.408;2023-03-11T09:38:29;7.93;;;6.60;;
2105;SDS011;1059;52.548;13.408;2023-03-11T09:40:57;8.70;;;7.00;;
2105;SDS011;1059;52.548;13.408;2023-03-11T09:43:40;11.20;;;6.40;;
2105;SDS011;1059;52.548;13.408;2023-03-11T09:46:19;6.73;;;6.03;;
2105;SDS011;1059;52.548;13.408;2023-03-11T09:49:04;12.20;;;7.23;;
2105;SDS011;1059;52.548;13.408;2023-03-11T09:51:40;9.03;;;6.77;;
2105;SDS011;1059;52.548;13.408;2023-03-11T09:54:12;7.40;;;6.57;;
2105;SDS011;1059;52.548;13.408;2023-03-11T09:56:39;8.30;;;6.20;;
2105;SDS011;1059;52.548;13.408;2023-03-11T09:59:12;9.13;;;7.50;;
2105;SDS011;1059;52.548;13.408;2023-03-11T10:01:43;7.67;;;6.43;;
2105;SDS011;1059;52.548;13.408;2023-03-11T10:04:16;8.40;;;6.70;;
2105;SDS011;1059;52.548;13.408;2023-03-11T10:06:46;8.90;;;6.40;;
2105;SDS011;1059;52.548;13.408;2023-03-11T10:09:22;7.60;;;6.27;;
2105;SDS011;1059;52.548;13.408;2023-03-11T10:11:57;7.20;;;6.30;;
2105;SDS011;1059;52.548;13.408;2023-03-11T10:14:45;6.67;;;5.93;;
2105;SDS011;1059;52.548;13.408;2023-03-11T10:17:24;7.90;;;6.47;;
2105;SDS011;1059;52.548;13.408;2023-03-11T10:20:18;7.47;;;6.30;;
2105;SDS011;1059;52.548;13.408;2023-03-11T10:22:50;8.10;;;6.40;;
2105;SDS011;1059;52.548;13.408;2023-03-11T10:25:24;7.53;;;6.70;;
2105;SDS011;1059;52.548;13.408;2023-03-11T10:27:54;9.17;;;8.03;;
2105;SDS011;1059;52.548;13.408;2023-03-11T10:30:26;8.03;;;7.00;;
2105;SDS011;1059;52.548;13.408;2023-03-11T10:32:57;8.13;;;6.47;;
2105;SDS011;1059;52.548;13.408;2023-03-11T10:35:30;7.97;;;7.13;;
2105;SDS011;1059;52.548;13.408;2023-03-11T10:38:04;7.30;;;6.33;;
2105;SDS011;1059;52.548;13.408;2023-03-11T10:40:36;7.83;;;7.03;;
2105;SDS011;1059;52.548;13.408;2023-03-11T10:43:08;9.50;;;7.43;;
2105;SDS011;1059;52.548;13.408;2023-03-11T10:45:39;9.13;;;7.83;;
2105;SDS011;1059;52.548;13.408;2023-03-11T10:48:09;8.60;;;7.63;;
2105;SDS011;1059;52.548;13.408;2023-03-11T10:50:38;10.07;;;7.60;;
2105;SDS011;1059;52.548;13.408;2023-03-11T10:53:13;9.57;;;7.70;;
2105;SDS011;1059;52.548;13.408;2023-03-11T10:55:44;8.67;;;7.63;;
2105;SDS011;1059;52.548;13.408;2023-03-11T10:58:13;8.97;;;7.47;;
2105;SDS011;1059;52.548;13.408;2023-03-11T11:00:40;7.87;;;6.90;;
2105;SDS011;1059;52.548;13.408;2023-03-11T11:03:11;8.47;;;7.50;;
2105;SDS011;1059;52.548;13.408;2023-03-11T11:05:55;8.17;;;7.07;;
2105;SDS011;1059;52.548;13.408;2023-03-11T11:08:24;10.40;;;7.40;;
2105;SDS011;1059;52.548;13.408;2023-03-11T11:10:52;9.50;;;7.30;;
2105;SDS011;1059;52.548;13.408;2023-03-11T11:13:21;9.13;;;7.43;;
2105;SDS011;1059;52.548;13.408;2023-03-11T11:15:50;8.87;;;7.57;;
2105;SDS011;1059;52.548;13.408;2023-03-11T11:18:23;7.83;;;6.87;;
2105;SDS011;1059;52.548;13.408;2023-03-11T11:20:57;10.80;;;8.83;;
2105;SDS011;1059;52.548;13.408;2023-03-11T11:23:30;9.90;;;8.20;;
2105;SDS011;1059;52.548;13.408;2023-03-11T11:26:00;9.87;;;7.60;;
2105;SDS011;1059;52.548;13.408;2023-03-11T11:28:29;8.67;;;7.73;;
2105;SDS011;1059;52.548;13.408;2023-03-11T11:30:57;12.67;;;8.87;;
2105;SDS011;1059;52.548;13.408;2023-03-11T11:33:26;10.60;;;9.00;;
2105;SDS011;1059;52.548;13.408;2023-03-11T11:35:56;11.17;;;9.77;;
2105;SDS011;1059;52.548;13.408;2023-03-11T11:38:27;11.03;;;9.13;;
2105;SDS011;1059;52.548;13.408;2023-03-11T11:40:55;10.13;;;8.30;;
2105;SDS011;1059;52.548;13.408;2023-03-11T11:43:40;12.30;;;9.90;;
2105;SDS011;1059;52.548;13.408;2023-03-11T11:46:14;17.73;;;12.67;;
2105;SDS011;1059;52.548;13.408;2023-03-11T11:48:46;13.30;;;10.13;;
2105;SDS011;1059;52.548;13.408;2023-03-11T11:51:22;12.87;;;9.40;;
2105;SDS011;1059;52.548;13.408;2023-03-11T11:53:54;11.50;;;8.73;;
2105;SDS011;1059;52.548;13.408;2023-03-11T11:56:26;11.10;;;9.10;;
2105;SDS011;1059;52.548;13.408;2023-03-11T11:58:53;9.97;;;8.33;;
2105;SDS011;1059;52.548;13.408;2023-03-11T12:01:22;10.07;;;8.77;;
2105;SDS011;1059;52.548;13.408;2023-03-11T12:07:11;14.53;;;9.37;;
2105;SDS011;1059;52.548;13.408;2023-03-11T12:09:49;9.33;;;8.37;;
2105;SDS011;1059;52.548;13.408;2023-03-11T12:12:22;11.13;;;8.83;;
2105;SDS011;1059;52.548;13.408;2023-03-11T12:14:56;12.57;;;8.60;;
2105;SDS011;1059;52.548;13.408;2023-03-11T12:17:31;9.10;;;8.10;;
2105;SDS011;1059;52.548;13.408;2023-03-11T12:20:04;9.70;;;8.70;;
2105;SDS011;1059;52.548;13.408;2023-03-11T12:22:42;9.57;;;8.03;;
2105;SDS011;1059;52.548;13.408;2023-03-11T12:25:27;10.37;;;8.53;;
2105;SDS011;1059;52.548;13.408;2023-03-11T12:28:00;10.47;;;8.70;;
2105;SDS011;1059;52.548;13.408;2023-03-11T12:30:35;10.67;;;8.90;;
2105;SDS011;1059;52.548;13.408;2023-03-11T12:33:10;11.40;;;8.93;;
2105;SDS011;1059;52.548;13.408;2023-03-11T12:35:46;11.83;;;8.63;;
2105;SDS011;1059;52.548;13.408;2023-03-11T12:38:17;12.40;;;8.60;;
2105;SDS011;1059;52.548;13.408;2023-03-11T12:49:43;9.50;;;8.23;;
2105;SDS011;1059;52.548;13.408;2023-03-11T12:52:21;9.13;;;8.23;;
2105;SDS011;1059;52.548;13.408;2023-03-11T12:58:29;9.80;;;7.83;;
2105;SDS011;1059;52.548;13.408;2023-03-11T13:01:11;9.93;;;7.63;;
2105;SDS011;1059;52.548;13.408;2023-03-11T13:03:58;9.67;;;8.00;;
2105;SDS011;1059;52.548;13.408;2023-03-11T13:06:35;11.73;;;9.00;;
2105;SDS011;1059;52.548;13.408;2023-03-11T13:09:17;9.90;;;8.07;;
2105;SDS011;1059;52.548;13.408;2023-03-11T13:11:44;12.67;;;9.07;;
2105;SDS011;1059;52.548;13.408;2023-03-11T13:19:56;9.83;;;7.70;;
2105;SDS011;1059;52.548;13.408;2023-03-11T13:25:38;10.20;;;8.90;;
2105;SDS011;1059;52.548;13.408;2023-03-11T13:31:15;8.80;;;7.47;;
2105;SDS011;1059;52.548;13.408;2023-03-11T13:33:53;10.40;;;7.20;;
2105;SDS011;1059;52.548;13.408;2023-03-11T13:36:35;11.90;;;7.03;;
2105;SDS011;1059;52.548;13.408;2023-03-11T13:39:19;8.80;;;7.90;;
2105;SDS011;1059;52.548;13.408;2023-03-11T13:41:54;10.40;;;7.73;;
2105;SDS011;1059;52.548;13.408;2023-03-11T13:44:24;10.27;;;8.53;;
2105;SDS011;1059;52.548;13.408;2023-03-11T13:46:57;10.90;;;7.73;;
2105;SDS011;1059;52.548;13.408;2023-03-11T13:49:34;10.33;;;7.80;;
2105;SDS011;1059;52.548;13.408;2023-03-11T13:52:06;13.03;;;7.57;;
2105;SDS011;1059;52.548;13.408;2023-03-11T13:54:37;9.07;;;7.57;;
2105;SDS011;1059;52.548;13.408;2023-03-11T13:57:14;10.17;;;7.30;;
2105;SDS011;1059;52.548;13.408;2023-03-11T13:59:52;10.87;;;8.10;;
2105;SDS011;1059;52.548;13.408;2023-03-11T14:02:21;6.60;;;5.93;;
2105;SDS011;1059;52.548;13.408;2023-03-11T14:04:51;7.87;;;6.83;;
2105;SDS011;1059;52.548;13.408;2023-03-11T14:07:26;7.87;;;6.90;;
2105;SDS011;1059;52.548;13.408;2023-03-11T14:12:50;8.47;;;6.30;;
2105;SDS011;1059;52.548;13.408;2023-03-11T14:15:19;8.83;;;7.03;;
2105;SDS011;1059;52.548;13.408;2023-03-11T14:17:51;7.17;;;6.47;;
2105;SDS011;1059;52.548;13.408;2023-03-11T14:20:19;8.13;;;6.40;;
2105;SDS011;1059;52.548;13.408;2023-03-11T14:22:50;10.60;;;6.50;;
2105;SDS011;1059;52.548;13.408;2023-03-11T14:25:19;8.33;;;5.37;;
2105;SDS011;1059;52.548;13.408;2023-03-11T14:27:53;7.00;;;5.70;;
2105;SDS011;1059;52.548;13.408;2023-03-11T14:30:22;7.17;;;5.50;;
2105;SDS011;1059;52.548;13.408;2023-03-11T14:32:56;6.70;;;4.70;;
2105;SDS011;1059;52.548;13.408;2023-03-11T14:35:25;5.73;;;5.00;;
2105;SDS011;1059;52.548;13.408;2023-03-11T14:37:53;6.33;;;4.50;;
2105;SDS011;1059;52.548;13.408;2023-03-11T14:40:21;6.53;;;4.50;;
2105;SDS011;1059;52.548;13.408;2023-03-11T14:42:54;4.63;;;4.13;;
2105;SDS011;1059;52.548;13.408;2023-03-11T14:45:25;6.40;;;4.00;;
2105;SDS011;1059;52.548;13.408;2023-03-11T14:47:57;7.77;;;4.27;;
2105;SDS011;1059;52.548;13.408;2023-03-11T14:50:28;5.33;;;4.70;;
2105;SDS011;1059;52.548;13.408;2023-03-11T14:52:58;4.13;;;3.73;;
2105;SDS011;1059;52.548;13.408;2023-03-11T14:55:29;5.50;;;4.50;;
2105;SDS011;1059;52.548;13.408;2023-03-11T14:58:04;6.93;;;4.87;;
2105;SDS011;1059;52.548;13.408;2023-03-11T15:00:39;6.43;;;5.23;;
2105;SDS011;1059;52.548;13.408;2023-03-11T15:03:14;5.80;;;4.70;;
2105;SDS011;1059;52.548;13.408;2023-03-11T15:05:47;5.20;;;4.30;;
2105;SDS011;1059;52.548;13.408;2023-03-11T15:08:18;5.50;;;4.17;;
2105;SDS011;1059;52.548;13.408;2023-03-11T15:11:04;4.60;;;4.10;;
2105;SDS011;1059;52.548;13.408;2023-03-11T15:13:34;4.97;;;4.00;;
2105;SDS011;1059;52.548;13.408;2023-03-11T15:16:02;5.07;;;4.30;;
2105;SDS011;1059;52.548;13.408;2023-03-11T15:18:33;5.57;;;4.10;;
2105;SDS011;1059;52.548;13.408;2023-03-11T15:21:03;4.90;;;3.70;;
2105;SDS011;1059;52.548;13.408;2023-03-11T15:23:37;4.20;;;3.57;;
2105;SDS011;1059;52.548;13.408;2023-03-11T15:26:05;3.50;;;3.20;;
2105;SDS011;1059;52.548;13.408;2023-03-11T15:28:32;3.80;;;3.43;;
2105;SDS011;1059;52.548;13.408;2023-03-11T15:31:14;4.83;;;3.40;;
2105;SDS011;1059;52.548;13.408;2023-03-11T15:33:44;4.33;;;3.30;;
2105;SDS011;1059;52.548;13.408;2023-03-11T15:36:27;5.80;;;3.23;;
2105;SDS011;1059;52.548;13.408;2023-03-11T15:41:41;4.67;;;3.20;;
2105;SDS011;1059;52.548;13.408;2023-03-11T15:44:16;4.10;;;3.47;;
2105;SDS011;1059;52.548;13.408;2023-03-11T15:46:49;3.40;;;3.10;;